sensor_id;sensor_type;location;lat;lon;timestamp;temperature;humidity
51595;DHT22;37677;53.254;6.594;2023-05-09T00:23:41;14.40;99.90
51595;DHT22;37677;53.254;6.594;2023-05-09T00:26:07;14.50;99.90
51595;DHT22;37677;53.254;6.594;2023-05-09T00:28:32;14.70;99.90
51595;DHT22;37677;53.254;6.594;2023-05-09T00:30:58;14.40;99.90
51595;DHT22;37677;53.254;6.594;2023-05-09T00:33:24;14.70;99.90
51595;DHT22;37677;53.254;6.594;2023-05-09T00:35:55;14.50;99.90
51595;DHT22;37677;53.254;6.594;2023-05-09T01:40:53;14.50;99.90
51595;DHT22;37677;53.254;6.594;2023-05-09T02:12:53;14.50;99.90
51595;DHT22;37677;53.254;6.594;2023-05-09T02:15:20;14.60;99.90
51595;DHT22;37677;53.254;6.594;2023-05-09T02:17:46;14.80;99.90
51595;DHT22;37677;53.254;6.594;2023-05-09T02:20:12;14.70;99.90
51595;DHT22;37677;53.254;6.594;2023-05-09T02:22:39;14.50;99.90
51595;DHT22;37677;53.254;6.594;2023-05-09T02:30:03;14.50;99.90
51595;DHT22;37677;53.254;6.594;2023-05-09T02:32:33;14.30;99.90
51595;DHT22;37677;53.254;6.594;2023-05-09T02:35:00;14.30;99.90
51595;DHT22;37677;53.254;6.594;2023-05-09T02:37:27;14.30;99.90
51595;DHT22;37677;53.254;6.594;2023-05-09T02:39:56;14.50;99.90
51595;DHT22;37677;53.254;6.594;2023-05-09T02:42:24;14.50;99.90
51595;DHT22;37677;53.254;6.594;2023-05-09T02:44:51;14.60;99.90
51595;DHT22;37677;53.254;6.594;2023-05-09T02:49:44;14.60;99.90
51595;DHT22;37677;53.254;6.594;2023-05-09T02:52:09;14.50;99.90
51595;DHT22;37677;53.254;6.594;2023-05-09T02:54:36;14.20;99.90
51595;DHT22;37677;53.254;6.594;2023-05-09T02:57:02;14.40;99.90
51595;DHT22;37677;53.254;6.594;2023-05-09T02:59:28;14.50;99.90
51595;DHT22;37677;53.254;6.594;2023-05-09T03:04:20;14.50;99.90
51595;DHT22;37677;53.254;6.594;2023-05-09T03:06:46;14.50;99.90
51595;DHT22;37677;53.254;6.594;2023-05-09T03:09:11;14.50;99.90
51595;DHT22;37677;53.254;6.594;2023-05-09T03:11:37;14.50;99.90
51595;DHT22;37677;53.254;6.594;2023-05-09T03:16:29;14.50;99.90
51595;DHT22;37677;53.254;6.594;2023-05-09T03:18:55;14.50;99.90
51595;DHT22;37677;53.254;6.594;2023-05-09T03:31:06;14.70;99.90
51595;DHT22;37677;53.254;6.594;2023-05-09T03:45:42;14.70;99.90
51595;DHT22;37677;53.254;6.594;2023-05-09T04:02:50;14.50;99.90
51595;DHT22;37677;53.254;6.594;2023-05-09T04:07:42;14.50;99.90
51595;DHT22;37677;53.254;6.594;2023-05-09T04:10:08;14.60;99.90
51595;DHT22;37677;53.254;6.594;2023-05-09T04:12:34;14.70;99.90
51595;DHT22;37677;53.254;6.594;2023-05-09T04:19:52;14.30;99.90
51595;DHT22;37677;53.254;6.594;2023-05-09T04:22:17;14.90;99.90
51595;DHT22;37677;53.254;6.594;2023-05-09T04:24:43;14.80;99.90
51595;DHT22;37677;53.254;6.594;2023-05-09T04:32:01;14.60;99.90
51595;DHT22;37677;53.254;6.594;2023-05-09T04:34:29;14.70;99.90
51595;DHT22;37677;53.254;6.594;2023-05-09T04:36:56;14.60;99.90
51595;DHT22;37677;53.254;6.594;2023-05-09T04:39:22;14.20;99.90
51595;DHT22;37677;53.254;6.594;2023-05-09T04:44:14;14.80;99.90
51595;DHT22;37677;53.254;6.594;2023-05-09T04:46:40;14.70;99.90
51595;DHT22;37677;53.254;6.594;2023-05-09T04:51:32;14.80;99.90
51595;DHT22;37677;53.254;6.594;2023-05-09T04:56:24;14.80;99.90
51595;DHT22;37677;53.254;6.594;2023-05-09T04:58:49;15.30;99.90
51595;DHT22;37677;53.254;6.594;2023-05-09T05:01:15;14.40;99.90
51595;DHT22;37677;53.254;6.594;2023-05-09T05:03:41;14.80;99.90
51595;DHT22;37677;53.254;6.594;2023-05-09T05:06:07;14.90;99.90
51595;DHT22;37677;53.254;6.594;2023-05-09T05:08:33;14.70;99.90
51595;DHT22;37677;53.254;6.594;2023-05-09T05:10:58;14.90;99.90
51595;DHT22;37677;53.254;6.594;2023-05-09T05:28:07;15.20;99.90
51595;DHT22;37677;53.254;6.594;2023-05-09T05:30:32;15.20;99.90
51595;DHT22;37677;53.254;6.594;2023-05-09T05:32:58;15.30;99.90
51595;DHT22;37677;53.254;6.594;2023-05-09T05:35:23;15.20;99.90
51595;DHT22;37677;53.254;6.594;2023-05-09T05:37:49;15.30;99.90
51595;DHT22;37677;53.254;6.594;2023-05-09T05:40:15;15.30;99.90
51595;DHT22;37677;53.254;6.594;2023-05-09T05:42:41;15.20;99.90
51595;DHT22;37677;53.254;6.594;2023-05-09T05:45:09;15.20;99.90
51595;DHT22;37677;53.254;6.594;2023-05-09T05:47:35;15.30;99.90
51595;DHT22;37677;53.254;6.594;2023-05-09T05:50:03;15.20;99.90
51595;DHT22;37677;53.254;6.594;2023-05-09T05:52:31;14.90;99.90
51595;DHT22;37677;53.254;6.594;2023-05-09T05:54:56;15.20;99.90
51595;DHT22;37677;53.254;6.594;2023-05-09T05:57:22;15.20;99.90
51595;DHT22;37677;53.254;6.594;2023-05-09T05:59:48;15.60;99.90
51595;DHT22;37677;53.254;6.594;2023-05-09T06:02:15;15.20;99.90
51595;DHT22;37677;53.254;6.594;2023-05-09T06:04:41;15.20;99.90
51595;DHT22;37677;53.254;6.594;2023-05-09T06:07:07;15.10;99.90
51595;DHT22;37677;53.254;6.594;2023-05-09T06:09:32;15.20;99.90
51595;DHT22;37677;53.254;6.594;2023-05-09T06:11:58;15.20;99.90
51595;DHT22;37677;53.254;6.594;2023-05-09T06:14:24;15.20;99.90
51595;DHT22;37677;53.254;6.594;2023-05-09T06:16:58;15.20;99.90
51595;DHT22;37677;53.254;6.594;2023-05-09T06:19:24;15.30;99.90
51595;DHT22;37677;53.254;6.594;2023-05-09T06:21:50;15.30;99.90
51595;DHT22;37677;53.254;6.594;2023-05-09T06:24:16;15.40;99.90
51595;DHT22;37677;53.254;6.594;2023-05-09T06:26:42;15.40;99.90
51595;DHT22;37677;53.254;6.594;2023-05-09T06:29:08;15.30;99.90
51595;DHT22;37677;53.254;6.594;2023-05-09T06:31:34;15.70;99.90
51595;DHT22;37677;53.254;6.594;2023-05-09T06:34:03;15.80;99.90
51595;DHT22;37677;53.254;6.594;2023-05-09T06:36:29;15.70;99.90
51595;DHT22;37677;53.254;6.594;2023-05-09T06:38:56;15.40;99.90
51595;DHT22;37677;53.254;6.594;2023-05-09T06:43:48;15.60;99.90
51595;DHT22;37677;53.254;6.594;2023-05-09T06:46:14;15.60;99.90
51595;DHT22;37677;53.254;6.594;2023-05-09T06:48:40;15.60;99.90
51595;DHT22;37677;53.254;6.594;2023-05-09T06:51:05;15.70;99.90
51595;DHT22;37677;53.254;6.594;2023-05-09T06:53:31;15.60;99.30
51595;DHT22;37677;53.254;6.594;2023-05-09T06:55:57;15.60;99.70
51595;DHT22;37677;53.254;6.594;2023-05-09T06:58:23;15.90;99.90
51595;DHT22;37677;53.254;6.594;2023-05-09T07:00:49;15.50;98.80
51595;DHT22;37677;53.254;6.594;2023-05-09T07:03:15;15.70;98.30
51595;DHT22;37677;53.254;6.594;2023-05-09T07:05:40;15.70;97.60
51595;DHT22;37677;53.254;6.594;2023-05-09T07:08:06;15.60;97.00
51595;DHT22;37677;53.254;6.594;2023-05-09T07:10:32;15.60;97.10
51595;DHT22;37677;53.254;6.594;2023-05-09T07:12:57;15.60;97.20
51595;DHT22;37677;53.254;6.594;2023-05-09T07:15:23;15.50;97.60
51595;DHT22;37677;53.254;6.594;2023-05-09T07:17:49;15.60;97.70
51595;DHT22;37677;53.254;6.594;2023-05-09T07:20:14;15.60;98.00
51595;DHT22;37677;53.254;6.594;2023-05-09T07:22:40;15.60;97.80
51595;DHT22;37677;53.254;6.594;2023-05-09T07:25:07;15.10;98.10
51595;DHT22;37677;53.254;6.594;2023-05-09T07:27:33;15.60;98.20
51595;DHT22;37677;53.254;6.594;2023-05-09T07:29:59;15.60;98.80
51595;DHT22;37677;53.254;6.594;2023-05-09T07:32:24;15.90;98.30
51595;DHT22;37677;53.254;6.594;2023-05-09T07:34:53;15.70;98.50
51595;DHT22;37677;53.254;6.594;2023-05-09T07:37:19;15.60;98.40
51595;DHT22;37677;53.254;6.594;2023-05-09T07:39:45;15.90;98.60
51595;DHT22;37677;53.254;6.594;2023-05-09T07:42:12;15.80;98.80
51595;DHT22;37677;53.254;6.594;2023-05-09T07:44:38;15.80;98.60
51595;DHT22;37677;53.254;6.594;2023-05-09T07:47:04;15.90;98.60
51595;DHT22;37677;53.254;6.594;2023-05-09T07:49:32;16.00;99.50
51595;DHT22;37677;53.254;6.594;2023-05-09T07:51:58;16.00;99.60
51595;DHT22;37677;53.254;6.594;2023-05-09T07:54:24;16.00;92.80
51595;DHT22;37677;53.254;6.594;2023-05-09T07:56:49;16.20;93.00
51595;DHT22;37677;53.254;6.594;2023-05-09T07:59:15;16.00;92.90
51595;DHT22;37677;53.254;6.594;2023-05-09T08:01:41;16.30;92.30
51595;DHT22;37677;53.254;6.594;2023-05-09T08:04:07;16.10;91.70
51595;DHT22;37677;53.254;6.594;2023-05-09T08:06:34;16.10;90.80
51595;DHT22;37677;53.254;6.594;2023-05-09T08:09:00;16.20;90.50
51595;DHT22;37677;53.254;6.594;2023-05-09T08:11:26;16.30;90.10
51595;DHT22;37677;53.254;6.594;2023-05-09T08:13:52;16.50;88.70
51595;DHT22;37677;53.254;6.594;2023-05-09T08:16:18;16.30;89.30
51595;DHT22;37677;53.254;6.594;2023-05-09T08:18:44;16.30;90.00
51595;DHT22;37677;53.254;6.594;2023-05-09T08:21:10;16.20;90.70
51595;DHT22;37677;53.254;6.594;2023-05-09T08:23:36;16.30;88.50
51595;DHT22;37677;53.254;6.594;2023-05-09T08:26:01;16.30;90.00
51595;DHT22;37677;53.254;6.594;2023-05-09T08:28:28;16.30;88.70
51595;DHT22;37677;53.254;6.594;2023-05-09T08:30:54;16.50;86.90
51595;DHT22;37677;53.254;6.594;2023-05-09T08:33:21;16.30;84.40
51595;DHT22;37677;53.254;6.594;2023-05-09T08:35:50;16.50;84.30
51595;DHT22;37677;53.254;6.594;2023-05-09T08:38:16;16.50;84.20
51595;DHT22;37677;53.254;6.594;2023-05-09T08:40:42;16.50;83.20
51595;DHT22;37677;53.254;6.594;2023-05-09T08:43:08;16.40;81.80
51595;DHT22;37677;53.254;6.594;2023-05-09T08:45:45;16.30;80.50
51595;DHT22;37677;53.254;6.594;2023-05-09T08:48:14;16.60;80.70
51595;DHT22;37677;53.254;6.594;2023-05-09T08:50:42;16.70;81.10
51595;DHT22;37677;53.254;6.594;2023-05-09T08:53:08;16.60;82.40
51595;DHT22;37677;53.254;6.594;2023-05-09T08:55:34;16.50;81.70
51595;DHT22;37677;53.254;6.594;2023-05-09T08:58:00;16.60;81.60
51595;DHT22;37677;53.254;6.594;2023-05-09T09:00:26;16.60;81.80
51595;DHT22;37677;53.254;6.594;2023-05-09T09:02:54;16.80;81.60
51595;DHT22;37677;53.254;6.594;2023-05-09T09:05:22;16.70;83.00
51595;DHT22;37677;53.254;6.594;2023-05-09T09:07:48;17.30;90.00
51595;DHT22;37677;53.254;6.594;2023-05-09T09:10:15;16.80;78.30
51595;DHT22;37677;53.254;6.594;2023-05-09T09:12:42;16.70;75.90
51595;DHT22;37677;53.254;6.594;2023-05-09T09:15:14;17.00;75.20
51595;DHT22;37677;53.254;6.594;2023-05-09T09:17:42;17.10;73.20
51595;DHT22;37677;53.254;6.594;2023-05-09T09:20:12;17.00;66.00
51595;DHT22;37677;53.254;6.594;2023-05-09T09:22:41;17.20;67.70
51595;DHT22;37677;53.254;6.594;2023-05-09T09:25:11;17.20;66.40
51595;DHT22;37677;53.254;6.594;2023-05-09T09:27:36;16.10;62.80
51595;DHT22;37677;53.254;6.594;2023-05-09T09:30:06;17.60;64.50
51595;DHT22;37677;53.254;6.594;2023-05-09T09:32:33;17.40;59.30
51595;DHT22;37677;53.254;6.594;2023-05-09T09:35:06;17.40;55.20
51595;DHT22;37677;53.254;6.594;2023-05-09T09:37:34;17.60;54.60
51595;DHT22;37677;53.254;6.594;2023-05-09T09:40:00;17.40;57.40
51595;DHT22;37677;53.254;6.594;2023-05-09T09:42:32;17.40;55.80
51595;DHT22;37677;53.254;6.594;2023-05-09T09:45:09;17.70;66.80
51595;DHT22;37677;53.254;6.594;2023-05-09T09:47:36;17.70;60.30
51595;DHT22;37677;53.254;6.594;2023-05-09T09:50:18;17.40;57.20
51595;DHT22;37677;53.254;6.594;2023-05-09T09:52:54;17.60;46.00
51595;DHT22;37677;53.254;6.594;2023-05-09T09:55:23;17.60;51.50
51595;DHT22;37677;53.254;6.594;2023-05-09T09:57:49;17.80;58.30
51595;DHT22;37677;53.254;6.594;2023-05-09T10:00:23;17.70;51.60
51595;DHT22;37677;53.254;6.594;2023-05-09T10:02:52;17.50;28.40
51595;DHT22;37677;53.254;6.594;2023-05-09T10:08:06;17.60;31.30
51595;DHT22;37677;53.254;6.594;2023-05-09T10:10:34;17.40;31.90
51595;DHT22;37677;53.254;6.594;2023-05-09T10:13:10;17.40;33.50
51595;DHT22;37677;53.254;6.594;2023-05-09T10:15:36;17.50;34.20
51595;DHT22;37677;53.254;6.594;2023-05-09T10:18:03;17.40;37.60
51595;DHT22;37677;53.254;6.594;2023-05-09T10:20:30;17.50;40.50
51595;DHT22;37677;53.254;6.594;2023-05-09T10:23:00;17.50;42.20
51595;DHT22;37677;53.254;6.594;2023-05-09T10:28:13;17.50;27.60
51595;DHT22;37677;53.254;6.594;2023-05-09T10:30:53;17.50;28.10
51595;DHT22;37677;53.254;6.594;2023-05-09T10:33:25;17.50;28.40
51595;DHT22;37677;53.254;6.594;2023-05-09T10:35:51;17.50;29.30
51595;DHT22;37677;53.254;6.594;2023-05-09T10:38:18;17.60;31.40
51595;DHT22;37677;53.254;6.594;2023-05-09T10:40:46;17.90;35.40
51595;DHT22;37677;53.254;6.594;2023-05-09T10:43:12;18.20;25.50
51595;DHT22;37677;53.254;6.594;2023-05-09T10:45:39;18.30;32.10
51595;DHT22;37677;53.254;6.594;2023-05-09T10:48:05;18.50;28.40
51595;DHT22;37677;53.254;6.594;2023-05-09T10:50:34;18.30;20.90
51595;DHT22;37677;53.254;6.594;2023-05-09T10:55:36;18.50;10.70
51595;DHT22;37677;53.254;6.594;2023-05-09T10:58:22;18.40;7.90
51595;DHT22;37677;53.254;6.594;2023-05-09T11:00:49;18.40;1.00
51595;DHT22;37677;53.254;6.594;2023-05-09T11:03:15;18.40;1.00
51595;DHT22;37677;53.254;6.594;2023-05-09T11:05:44;18.40;1.00
51595;DHT22;37677;53.254;6.594;2023-05-09T11:08:20;18.30;1.00
51595;DHT22;37677;53.254;6.594;2023-05-09T11:10:46;18.40;1.00
51595;DHT22;37677;53.254;6.594;2023-05-09T11:13:12;18.30;1.00
51595;DHT22;37677;53.254;6.594;2023-05-09T11:15:50;18.40;1.00
51595;DHT22;37677;53.254;6.594;2023-05-09T11:18:16;18.40;1.00
51595;DHT22;37677;53.254;6.594;2023-05-09T11:20:44;18.40;1.00
51595;DHT22;37677;53.254;6.594;2023-05-09T11:23:10;18.60;1.00
51595;DHT22;37677;53.254;6.594;2023-05-09T11:25:45;18.40;1.00
51595;DHT22;37677;53.254;6.594;2023-05-09T11:28:28;18.30;1.00
51595;DHT22;37677;53.254;6.594;2023-05-09T11:31:10;18.40;1.00
51595;DHT22;37677;53.254;6.594;2023-05-09T11:33:37;18.20;1.00
51595;DHT22;37677;53.254;6.594;2023-05-09T11:36:29;18.00;1.00
51595;DHT22;37677;53.254;6.594;2023-05-09T11:39:07;18.30;1.00
51595;DHT22;37677;53.254;6.594;2023-05-09T11:41:42;18.00;1.00
51595;DHT22;37677;53.254;6.594;2023-05-09T11:44:19;18.20;1.00
51595;DHT22;37677;53.254;6.594;2023-05-09T11:46:46;18.20;1.00
51595;DHT22;37677;53.254;6.594;2023-05-09T11:49:13;18.20;1.00
51595;DHT22;37677;53.254;6.594;2023-05-09T11:51:40;17.90;1.00
51595;DHT22;37677;53.254;6.594;2023-05-09T11:54:07;18.30;1.00
51595;DHT22;37677;53.254;6.594;2023-05-09T11:56:34;18.30;1.00
51595;DHT22;37677;53.254;6.594;2023-05-09T11:59:00;18.40;1.00
51595;DHT22;37677;53.254;6.594;2023-05-09T12:01:28;18.50;1.00
51595;DHT22;37677;53.254;6.594;2023-05-09T12:03:54;18.80;1.00
51595;DHT22;37677;53.254;6.594;2023-05-09T12:06:20;18.00;1.00
51595;DHT22;37677;53.254;6.594;2023-05-09T12:08:46;18.90;1.00
51595;DHT22;37677;53.254;6.594;2023-05-09T12:11:13;18.80;1.00
51595;DHT22;37677;53.254;6.594;2023-05-09T12:13:49;18.70;1.00
51595;DHT22;37677;53.254;6.594;2023-05-09T12:16:17;19.10;1.00
51595;DHT22;37677;53.254;6.594;2023-05-09T12:18:48;19.10;1.00
51595;DHT22;37677;53.254;6.594;2023-05-09T12:21:15;19.10;1.00
51595;DHT22;37677;53.254;6.594;2023-05-09T12:23:40;19.00;1.00
51595;DHT22;37677;53.254;6.594;2023-05-09T12:26:06;19.40;1.00
51595;DHT22;37677;53.254;6.594;2023-05-09T12:28:33;19.30;1.00
51595;DHT22;37677;53.254;6.594;2023-05-09T12:31:00;19.40;1.00
51595;DHT22;37677;53.254;6.594;2023-05-09T12:33:26;19.40;1.00
51595;DHT22;37677;53.254;6.594;2023-05-09T12:36:04;19.40;1.00
51595;DHT22;37677;53.254;6.594;2023-05-09T12:38:30;19.50;1.00
51595;DHT22;37677;53.254;6.594;2023-05-09T12:41:03;19.40;1.00
51595;DHT22;37677;53.254;6.594;2023-05-09T12:43:34;19.50;1.00
51595;DHT22;37677;53.254;6.594;2023-05-09T12:46:00;19.40;1.00
51595;DHT22;37677;53.254;6.594;2023-05-09T12:48:29;19.40;1.00
51595;DHT22;37677;53.254;6.594;2023-05-09T12:51:02;19.20;1.00
51595;DHT22;37677;53.254;6.594;2023-05-09T12:53:28;19.20;1.00
51595;DHT22;37677;53.254;6.594;2023-05-09T12:56:03;19.40;1.00
51595;DHT22;37677;53.254;6.594;2023-05-09T12:58:32;19.30;1.00
51595;DHT22;37677;53.254;6.594;2023-05-09T13:00:59;19.20;1.00
51595;DHT22;37677;53.254;6.594;2023-05-09T13:03:28;19.00;1.00
51595;DHT22;37677;53.254;6.594;2023-05-09T13:06:03;19.20;1.00
51595;DHT22;37677;53.254;6.594;2023-05-09T13:08:30;19.30;1.00
51595;DHT22;37677;53.254;6.594;2023-05-09T13:10:57;19.30;1.00
51595;DHT22;37677;53.254;6.594;2023-05-09T13:13:26;19.30;1.00
51595;DHT22;37677;53.254;6.594;2023-05-09T13:15:53;19.30;1.00
51595;DHT22;37677;53.254;6.594;2023-05-09T13:18:19;19.10;1.00
51595;DHT22;37677;53.254;6.594;2023-05-09T13:20:46;19.10;1.00
51595;DHT22;37677;53.254;6.594;2023-05-09T13:23:12;19.10;1.00
51595;DHT22;37677;53.254;6.594;2023-05-09T13:25:37;19.10;1.00
51595;DHT22;37677;53.254;6.594;2023-05-09T13:28:03;19.00;1.00
51595;DHT22;37677;53.254;6.594;2023-05-09T13:30:29;19.10;1.00
51595;DHT22;37677;53.254;6.594;2023-05-09T13:32:55;19.00;1.00
51595;DHT22;37677;53.254;6.594;2023-05-09T13:35:21;18.80;1.00
51595;DHT22;37677;53.254;6.594;2023-05-09T13:37:48;18.70;1.00
51595;DHT22;37677;53.254;6.594;2023-05-09T13:40:14;18.70;1.00
51595;DHT22;37677;53.254;6.594;2023-05-09T13:42:40;18.60;1.00
51595;DHT22;37677;53.254;6.594;2023-05-09T13:45:06;18.20;5.00
51595;DHT22;37677;53.254;6.594;2023-05-09T13:47:32;18.50;6.00
51595;DHT22;37677;53.254;6.594;2023-05-09T13:49:58;18.40;7.20
51595;DHT22;37677;53.254;6.594;2023-05-09T13:52:24;18.50;12.00
51595;DHT22;37677;53.254;6.594;2023-05-09T13:54:50;18.30;11.20
51595;DHT22;37677;53.254;6.594;2023-05-09T13:57:16;18.30;25.70
51595;DHT22;37677;53.254;6.594;2023-05-09T13:59:42;18.00;22.60
51595;DHT22;37677;53.254;6.594;2023-05-09T14:02:08;17.70;27.00
51595;DHT22;37677;53.254;6.594;2023-05-09T14:04:35;17.80;44.80
51595;DHT22;37677;53.254;6.594;2023-05-09T14:07:01;17.60;37.70
51595;DHT22;37677;53.254;6.594;2023-05-09T14:09:27;17.60;38.30
51595;DHT22;37677;53.254;6.594;2023-05-09T14:11:54;17.60;41.40
51595;DHT22;37677;53.254;6.594;2023-05-09T14:14:21;17.70;44.10
51595;DHT22;37677;53.254;6.594;2023-05-09T14:19:14;17.50;71.60
51595;DHT22;37677;53.254;6.594;2023-05-09T14:21:41;17.50;75.70
51595;DHT22;37677;53.254;6.594;2023-05-09T14:24:08;17.60;77.90
51595;DHT22;37677;53.254;6.594;2023-05-09T14:26:34;17.40;84.50
51595;DHT22;37677;53.254;6.594;2023-05-09T14:29:00;17.40;87.10
51595;DHT22;37677;53.254;6.594;2023-05-09T14:38:46;17.60;88.60
51595;DHT22;37677;53.254;6.594;2023-05-09T14:43:42;17.40;86.80
51595;DHT22;37677;53.254;6.594;2023-05-09T14:46:10;17.40;86.30
51595;DHT22;37677;53.254;6.594;2023-05-09T14:48:36;17.10;54.40
51595;DHT22;37677;53.254;6.594;2023-05-09T14:51:02;17.10;55.80
51595;DHT22;37677;53.254;6.594;2023-05-09T14:53:28;17.20;57.80
51595;DHT22;37677;53.254;6.594;2023-05-09T14:55:54;17.90;65.60
51595;DHT22;37677;53.254;6.594;2023-05-09T14:58:21;17.00;71.80
51595;DHT22;37677;53.254;6.594;2023-05-09T15:00:47;16.90;70.90
51595;DHT22;37677;53.254;6.594;2023-05-09T15:03:13;16.90;69.80
51595;DHT22;37677;53.254;6.594;2023-05-09T15:05:40;17.70;70.00
51595;DHT22;37677;53.254;6.594;2023-05-09T15:08:06;16.90;72.00
51595;DHT22;37677;53.254;6.594;2023-05-09T15:10:32;16.40;76.20
51595;DHT22;37677;53.254;6.594;2023-05-09T15:12:58;16.80;75.90
51595;DHT22;37677;53.254;6.594;2023-05-09T15:15:24;16.80;82.30
51595;DHT22;37677;53.254;6.594;2023-05-09T15:17:51;17.20;86.90
51595;DHT22;37677;53.254;6.594;2023-05-09T15:20:17;16.70;87.10
51595;DHT22;37677;53.254;6.594;2023-05-09T15:22:47;16.80;90.00
51595;DHT22;37677;53.254;6.594;2023-05-09T15:25:14;16.90;88.50
51595;DHT22;37677;53.254;6.594;2023-05-09T15:27:40;16.90;87.60
51595;DHT22;37677;53.254;6.594;2023-05-09T15:30:06;16.80;81.90
51595;DHT22;37677;53.254;6.594;2023-05-09T15:32:32;16.90;88.00
51595;DHT22;37677;53.254;6.594;2023-05-09T15:34:58;16.90;85.20
51595;DHT22;37677;53.254;6.594;2023-05-09T15:37:24;16.90;79.80
51595;DHT22;37677;53.254;6.594;2023-05-09T15:39:50;16.70;84.50
51595;DHT22;37677;53.254;6.594;2023-05-09T15:42:16;17.00;78.60
51595;DHT22;37677;53.254;6.594;2023-05-09T15:44:43;16.80;79.00
51595;DHT22;37677;53.254;6.594;2023-05-09T15:47:09;16.90;84.20
51595;DHT22;37677;53.254;6.594;2023-05-09T15:49:35;16.90;80.40
51595;DHT22;37677;53.254;6.594;2023-05-09T15:52:05;16.80;82.50
51595;DHT22;37677;53.254;6.594;2023-05-09T15:54:32;16.50;78.40
51595;DHT22;37677;53.254;6.594;2023-05-09T15:56:58;16.80;83.30
51595;DHT22;37677;53.254;6.594;2023-05-09T15:59:24;16.70;88.30
51595;DHT22;37677;53.254;6.594;2023-05-09T16:01:50;16.70;87.10
51595;DHT22;37677;53.254;6.594;2023-05-09T16:04:16;16.70;83.70
51595;DHT22;37677;53.254;6.594;2023-05-09T16:06:42;16.60;86.40
51595;DHT22;37677;53.254;6.594;2023-05-09T16:09:08;16.60;72.70
51595;DHT22;37677;53.254;6.594;2023-05-09T16:11:34;16.80;76.20
51595;DHT22;37677;53.254;6.594;2023-05-09T16:16:26;16.60;72.30
51595;DHT22;37677;53.254;6.594;2023-05-09T16:18:52;16.60;73.70
51595;DHT22;37677;53.254;6.594;2023-05-09T16:21:18;16.60;73.80
51595;DHT22;37677;53.254;6.594;2023-05-09T16:23:44;16.50;77.30
51595;DHT22;37677;53.254;6.594;2023-05-09T16:26:10;16.50;74.00
51595;DHT22;37677;53.254;6.594;2023-05-09T16:28:36;16.30;65.80
51595;DHT22;37677;53.254;6.594;2023-05-09T16:31:04;16.30;67.00
51595;DHT22;37677;53.254;6.594;2023-05-09T16:33:32;16.40;68.70
51595;DHT22;37677;53.254;6.594;2023-05-09T16:35:58;16.80;78.00
51595;DHT22;37677;53.254;6.594;2023-05-09T16:38:24;16.20;65.70
51595;DHT22;37677;53.254;6.594;2023-05-09T16:40:50;16.20;66.70
51595;DHT22;37677;53.254;6.594;2023-05-09T16:43:16;16.20;68.40
51595;DHT22;37677;53.254;6.594;2023-05-09T16:45:43;16.10;69.60
51595;DHT22;37677;53.254;6.594;2023-05-09T16:48:09;16.20;70.00
51595;DHT22;37677;53.254;6.594;2023-05-09T16:50:35;16.20;69.10
51595;DHT22;37677;53.254;6.594;2023-05-09T16:53:02;16.00;72.80
51595;DHT22;37677;53.254;6.594;2023-05-09T16:55:29;16.20;74.80
51595;DHT22;37677;53.254;6.594;2023-05-09T16:57:54;16.20;74.90
51595;DHT22;37677;53.254;6.594;2023-05-09T17:00:21;16.10;72.70
51595;DHT22;37677;53.254;6.594;2023-05-09T17:02:46;16.10;70.70
51595;DHT22;37677;53.254;6.594;2023-05-09T17:05:12;16.10;71.60
51595;DHT22;37677;53.254;6.594;2023-05-09T17:07:37;16.10;72.20
51595;DHT22;37677;53.254;6.594;2023-05-09T17:10:03;16.20;73.10
51595;DHT22;37677;53.254;6.594;2023-05-09T17:12:29;16.20;75.70
51595;DHT22;37677;53.254;6.594;2023-05-09T17:14:55;16.10;78.20
51595;DHT22;37677;53.254;6.594;2023-05-09T17:17:20;16.10;77.80
51595;DHT22;37677;53.254;6.594;2023-05-09T17:19:46;16.00;76.40
51595;DHT22;37677;53.254;6.594;2023-05-09T17:22:12;16.10;77.50
51595;DHT22;37677;53.254;6.594;2023-05-09T17:24:37;16.00;79.50
51595;DHT22;37677;53.254;6.594;2023-05-09T17:27:04;16.10;81.10
51595;DHT22;37677;53.254;6.594;2023-05-09T17:29:29;16.10;82.30
51595;DHT22;37677;53.254;6.594;2023-05-09T17:31:56;16.10;81.10
51595;DHT22;37677;53.254;6.594;2023-05-09T17:34:26;16.00;80.60
51595;DHT22;37677;53.254;6.594;2023-05-09T17:36:52;16.20;80.20
51595;DHT22;37677;53.254;6.594;2023-05-09T17:39:18;15.90;79.60
51595;DHT22;37677;53.254;6.594;2023-05-09T17:41:43;15.90;80.40
51595;DHT22;37677;53.254;6.594;2023-05-09T17:44:10;16.40;80.60
51595;DHT22;37677;53.254;6.594;2023-05-09T17:46:36;15.90;79.70
51595;DHT22;37677;53.254;6.594;2023-05-09T17:49:02;16.10;80.20
51595;DHT22;37677;53.254;6.594;2023-05-09T17:53:54;15.90;72.80
51595;DHT22;37677;53.254;6.594;2023-05-09T17:56:20;16.80;74.30
51595;DHT22;37677;53.254;6.594;2023-05-09T17:58:48;16.00;73.70
51595;DHT22;37677;53.254;6.594;2023-05-09T18:01:20;15.80;73.30
51595;DHT22;37677;53.254;6.594;2023-05-09T18:03:45;15.80;72.10
51595;DHT22;37677;53.254;6.594;2023-05-09T18:06:11;15.90;73.60
51595;DHT22;37677;53.254;6.594;2023-05-09T18:08:37;15.80;75.20
51595;DHT22;37677;53.254;6.594;2023-05-09T18:11:02;15.70;76.20
51595;DHT22;37677;53.254;6.594;2023-05-09T18:13:28;15.80;78.70
51595;DHT22;37677;53.254;6.594;2023-05-09T18:15:55;15.60;82.20
51595;DHT22;37677;53.254;6.594;2023-05-09T18:18:24;15.60;82.50
51595;DHT22;37677;53.254;6.594;2023-05-09T18:20:56;15.70;83.10
51595;DHT22;37677;53.254;6.594;2023-05-09T18:23:23;15.60;79.20
51595;DHT22;37677;53.254;6.594;2023-05-09T18:25:50;15.70;81.60
51595;DHT22;37677;53.254;6.594;2023-05-09T18:28:17;15.60;82.70
51595;DHT22;37677;53.254;6.594;2023-05-09T18:30:50;15.60;82.90
51595;DHT22;37677;53.254;6.594;2023-05-09T18:33:16;15.60;83.10
51595;DHT22;37677;53.254;6.594;2023-05-09T18:35:41;15.70;85.20
51595;DHT22;37677;53.254;6.594;2023-05-09T18:38:07;16.10;86.50
51595;DHT22;37677;53.254;6.594;2023-05-09T18:40:33;15.70;88.20
51595;DHT22;37677;53.254;6.594;2023-05-09T18:42:58;16.10;88.50
51595;DHT22;37677;53.254;6.594;2023-05-09T18:45:24;15.60;87.00
51595;DHT22;37677;53.254;6.594;2023-05-09T18:47:50;15.50;86.50
51595;DHT22;37677;53.254;6.594;2023-05-09T18:50:15;15.40;87.00
51595;DHT22;37677;53.254;6.594;2023-05-09T18:52:42;15.40;87.80
51595;DHT22;37677;53.254;6.594;2023-05-09T18:55:10;15.50;87.20
51595;DHT22;37677;53.254;6.594;2023-05-09T18:57:37;15.40;86.10
51595;DHT22;37677;53.254;6.594;2023-05-09T19:00:04;15.40;85.90
51595;DHT22;37677;53.254;6.594;2023-05-09T19:02:29;15.40;86.00
51595;DHT22;37677;53.254;6.594;2023-05-09T19:04:55;15.30;86.30
51595;DHT22;37677;53.254;6.594;2023-05-09T19:07:21;15.30;86.60
51595;DHT22;37677;53.254;6.594;2023-05-09T19:09:47;15.30;87.20
51595;DHT22;37677;53.254;6.594;2023-05-09T19:12:12;15.40;87.90
51595;DHT22;37677;53.254;6.594;2023-05-09T19:14:41;15.30;88.40
51595;DHT22;37677;53.254;6.594;2023-05-09T19:17:07;15.20;87.60